createdAt,value
2022-08-09T00:01:10.522Z,26.40
2022-08-09T00:04:00.687Z,26.50
2022-08-09T00:06:38.088Z,26.50
2022-08-09T00:09:17.948Z,26.60
2022-08-09T00:12:04.010Z,26.60
2022-08-09T00:14:38.567Z,26.50
2022-08-09T00:18:05.603Z,26.60
2022-08-09T00:20:04.014Z,26.60
2022-08-09T00:22:36.433Z,26.50
2022-08-09T00:25:10.311Z,26.50
2022-08-09T00:27:44.845Z,26.50
2022-08-09T00:30:26.075Z,26.50
2022-08-09T00:32:59.304Z,26.50
2022-08-09T00:35:42.665Z,26.50
2022-08-09T00:38:16.137Z,26.40
2022-08-09T00:40:53.859Z,26.50
2022-08-09T00:44:13.639Z,26.50
2022-08-09T00:46:55.494Z,26.40
2022-08-09T00:49:11.171Z,26.50
2022-08-09T00:51:55.989Z,26.50
2022-08-09T00:54:31.442Z,26.40
2022-08-09T00:57:10.690Z,26.50
2022-08-09T00:59:46.732Z,26.50
2022-08-09T01:02:29.041Z,26.40
2022-08-09T01:05:14.268Z,26.40
2022-08-09T01:08:00.188Z,26.40
2022-08-09T01:10:57.716Z,26.50
2022-08-09T01:13:41.945Z,26.40
2022-08-09T01:16:36.751Z,26.40
2022-08-09T01:20:02.865Z,26.40
2022-08-09T01:22:51.227Z,26.40
2022-08-09T01:25:42.176Z,26.30
2022-08-09T01:28:25.412Z,26.30
2022-08-09T01:31:00.974Z,26.30
2022-08-09T01:33:40.462Z,26.30
2022-08-09T01:36:14.757Z,26.30
2022-08-09T01:38:50.465Z,26.30
2022-08-09T01:41:29.638Z,26.40
2022-08-09T01:44:04.988Z,26.30
2022-08-09T01:46:41.769Z,26.30
2022-08-09T01:49:24.268Z,26.20
2022-08-09T01:52:07.514Z,26.20
2022-08-09T01:54:48.973Z,26.20
2022-08-09T01:57:31.118Z,26.10
2022-08-09T02:00:34.665Z,26.20
2022-08-09T02:03:07.202Z,26.20
2022-08-09T02:05:53.623Z,26.20
2022-08-09T02:08:58.508Z,26.30
2022-08-09T02:11:42.071Z,26.40
2022-08-09T02:14:26.520Z,26.40
2022-08-09T02:17:29.400Z,26.20
2022-08-09T02:19:51.378Z,26.30
2022-08-09T02:22:46.353Z,26.20
2022-08-09T02:25:25.191Z,26.20
2022-08-09T02:28:12.694Z,26.10
2022-08-09T02:31:03.545Z,26.20
2022-08-09T02:34:07.276Z,26.20
2022-08-09T02:36:41.867Z,26.20
2022-08-09T02:39:19.961Z,26.10
2022-08-09T02:42:08.817Z,26.20
2022-08-09T02:44:44.512Z,26.20
2022-08-09T02:47:20.120Z,26.00
2022-08-09T02:50:04.152Z,25.90
2022-08-09T02:52:44.634Z,25.80
2022-08-09T02:55:23.025Z,25.70
2022-08-09T02:58:35.413Z,25.80
2022-08-09T03:01:10.937Z,25.70
2022-08-09T03:04:16.727Z,25.60
2022-08-09T03:06:43.772Z,25.60
2022-08-09T03:09:20.385Z,25.60
2022-08-09T03:12:09.747Z,25.50
2022-08-09T03:14:44.041Z,25.40
2022-08-09T03:17:26.655Z,25.30
2022-08-09T03:20:05.194Z,25.30
2022-08-09T03:22:46.954Z,25.20
2022-08-09T03:25:58.435Z,25.20
2022-08-09T03:28:25.167Z,25.10
2022-08-09T03:30:57.966Z,25.00
2022-08-09T03:33:54.095Z,25.00
2022-08-09T03:36:27.636Z,25.10
2022-08-09T03:39:00.075Z,25.20
2022-08-09T03:41:46.045Z,25.30
2022-08-09T03:44:22.417Z,25.30
2022-08-09T03:46:59.790Z,25.30
2022-08-09T03:49:35.808Z,25.20
2022-08-09T03:52:08.846Z,25.20
2022-08-09T03:54:41.125Z,25.20
2022-08-09T03:57:19.813Z,25.10
2022-08-09T03:59:55.992Z,25.10
2022-08-09T04:02:33.853Z,25.00
2022-08-09T04:05:13.903Z,25.00
2022-08-09T04:07:56.625Z,25.00
2022-08-09T04:10:30.491Z,25.00
2022-08-09T04:13:09.487Z,25.00
2022-08-09T04:16:20.964Z,25.00
2022-08-09T04:18:36.885Z,25.00
2022-08-09T04:21:10.823Z,25.00
2022-08-09T04:23:53.702Z,25.00
2022-08-09T04:26:37.853Z,25.00
2022-08-09T04:29:14.810Z,25.00
2022-08-09T04:31:47.758Z,24.90
2022-08-09T04:34:31.828Z,24.90
2022-08-09T04:37:03.935Z,24.80
2022-08-09T04:39:40.491Z,24.80
2022-08-09T04:42:15.859Z,24.80
2022-08-09T04:44:50.447Z,24.80
2022-08-09T04:47:26.145Z,24.80
2022-08-09T04:50:16.936Z,24.90
2022-08-09T04:52:56.513Z,25.40
2022-08-09T04:55:35.373Z,26.10
2022-08-09T04:58:11.563Z,26.60
2022-08-09T05:00:45.908Z,27.20
2022-08-09T05:03:41.108Z,27.30
2022-08-09T05:06:26.744Z,27.30
2022-08-09T05:09:01.307Z,27.30
2022-08-09T05:11:36.064Z,27.50
2022-08-09T05:14:08.154Z,27.90
2022-08-09T05:16:57.955Z,28.40
2022-08-09T05:19:31.872Z,28.80
2022-08-09T05:22:28.434Z,28.90
2022-08-09T05:25:07.307Z,29.20
2022-08-09T05:27:46.505Z,29.10
2022-08-09T05:30:20.049Z,28.90
2022-08-09T05:32:53.393Z,28.60
2022-08-09T05:35:25.353Z,28.50
2022-08-09T05:37:57.353Z,28.50
2022-08-09T05:40:30.508Z,28.40
2022-08-09T05:43:02.409Z,28.80
2022-08-09T05:45:52.585Z,28.90
2022-08-09T05:48:33.315Z,29.00
2022-08-09T05:51:30.383Z,28.80
2022-08-09T05:53:59.788Z,28.60
2022-08-09T05:56:33.254Z,28.30
2022-08-09T05:59:05.954Z,28.40
2022-08-09T06:01:43.372Z,28.30
2022-08-09T06:04:15.532Z,28.20
2022-08-09T06:06:55.781Z,28.20
2022-08-09T06:09:54.199Z,28.00
2022-08-09T06:12:21.280Z,27.90
2022-08-09T06:15:01.477Z,28.10
2022-08-09T06:17:40.362Z,28.30
2022-08-09T06:20:12.713Z,28.10
2022-08-09T06:22:50.180Z,27.80
2022-08-09T06:25:23.150Z,27.90
2022-08-09T06:27:55.007Z,28.10
2022-08-09T06:30:26.929Z,28.20
2022-08-09T06:33:30.242Z,28.30
2022-08-09T06:35:57.531Z,28.20
2022-08-09T06:38:32.245Z,28.40
2022-08-09T06:41:18.702Z,28.20
2022-08-09T06:43:53.179Z,28.40
2022-08-09T06:46:39.770Z,28.40
2022-08-09T06:49:16.211Z,28.30
2022-08-09T06:52:01.164Z,28.50
2022-08-09T06:54:33.296Z,28.70
2022-08-09T06:57:05.455Z,28.80
2022-08-09T07:00:52.718Z,29.00
2022-08-09T07:02:33.834Z,29.10
2022-08-09T07:05:06.828Z,29.20
2022-08-09T07:07:59.511Z,29.10
2022-08-09T07:10:32.454Z,28.90
2022-08-09T07:13:27.308Z,28.90
2022-08-09T07:16:43.207Z,29.40
2022-08-09T07:18:50.536Z,29.40
2022-08-09T07:21:23.675Z,29.30
2022-08-09T07:23:58.293Z,29.50
2022-08-09T07:26:30.448Z,29.60
2022-08-09T07:29:11.767Z,29.50
2022-08-09T07:31:48.078Z,29.30
2022-08-09T07:34:21.287Z,29.60
2022-08-09T07:36:57.692Z,29.40
2022-08-09T07:39:41.378Z,29.00
2022-08-09T07:42:14.839Z,28.80
2022-08-09T07:44:52.511Z,29.00
2022-08-09T07:47:25.938Z,29.40
2022-08-09T07:50:07.898Z,29.30
2022-08-09T07:52:43.025Z,29.40
2022-08-09T07:55:16.106Z,29.30
2022-08-09T07:57:49.048Z,29.40
2022-08-09T08:00:35.623Z,30.00
2022-08-09T08:03:08.698Z,30.40
2022-08-09T08:05:53.841Z,30.10
2022-08-09T08:09:01.719Z,30.10
2022-08-09T08:12:24.126Z,30.90
2022-08-09T08:14:14.715Z,31.30
2022-08-09T08:17:00.604Z,30.90
2022-08-09T08:19:39.937Z,30.80
2022-08-09T08:22:11.820Z,30.00
2022-08-09T08:24:48.654Z,30.10
2022-08-09T08:27:21.153Z,30.50
2022-08-09T08:29:58.022Z,31.40
2022-08-09T08:32:31.129Z,31.50
2022-08-09T08:35:05.451Z,32.00
2022-08-09T08:37:41.931Z,32.00
2022-08-09T08:40:29.763Z,31.30
2022-08-09T08:43:08.929Z,31.10
2022-08-09T08:46:03.913Z,30.80
2022-08-09T08:48:51.493Z,31.10
2022-08-09T08:51:25.780Z,30.60
2022-08-09T08:54:20.409Z,30.50
2022-08-09T08:57:00.413Z,30.60
2022-08-09T08:59:46.493Z,30.80
2022-08-09T09:02:31.934Z,31.20
2022-08-09T09:05:09.858Z,31.30
2022-08-09T09:07:47.135Z,31.60
2022-08-09T09:10:22.697Z,31.00
2022-08-09T09:12:59.005Z,30.60
2022-08-09T09:15:41.078Z,30.70
2022-08-09T09:18:16.430Z,31.30
2022-08-09T09:20:48.603Z,31.50
2022-08-09T09:23:57.264Z,30.90
2022-08-09T09:26:31.160Z,30.50
2022-08-09T09:29:11.367Z,31.10
2022-08-09T09:32:06.692Z,31.50
2022-08-09T09:34:45.064Z,30.90
2022-08-09T09:37:31.916Z,30.60
2022-08-09T09:40:06.818Z,31.00
2022-08-09T09:42:46.055Z,30.90
2022-08-09T09:45:26.554Z,30.50
2022-08-09T09:48:04.976Z,30.50
2022-08-09T09:50:50.764Z,31.00
2022-08-09T09:53:43.881Z,32.00
2022-08-09T09:56:30.836Z,32.70
2022-08-09T09:59:04.264Z,33.40
2022-08-09T10:01:40.699Z,33.30
2022-08-09T10:04:22.899Z,32.50
2022-08-09T10:07:09.781Z,32.70
2022-08-09T10:09:54.880Z,33.00
2022-08-09T10:12:32.765Z,32.50
2022-08-09T10:15:25.331Z,31.70
2022-08-09T10:18:11.793Z,31.80
2022-08-09T10:20:45.331Z,32.50
2022-08-09T10:23:22.811Z,33.10
2022-08-09T10:26:06.766Z,33.50
2022-08-09T10:28:48.691Z,33.50
2022-08-09T10:34:33.570Z,32.80
2022-08-09T10:37:09.581Z,33.00
2022-08-09T10:39:49.455Z,32.90
2022-08-09T10:42:26.923Z,32.00
2022-08-09T10:45:12.134Z,31.30
2022-08-09T10:48:19.530Z,31.30
2022-08-09T10:51:21.359Z,31.00
2022-08-09T10:54:09.959Z,30.90
2022-08-09T10:56:44.626Z,31.10
2022-08-09T10:59:23.173Z,31.40
2022-08-09T11:03:07.396Z,31.80
2022-08-09T11:05:25.026Z,31.70
2022-08-09T11:08:47.631Z,31.60
2022-08-09T11:11:20.265Z,31.20
2022-08-09T11:14:35.276Z,31.10
2022-08-09T11:17:19.331Z,31.00
2022-08-09T11:20:18.012Z,31.00
2022-08-09T11:22:58.562Z,30.90
2022-08-09T11:25:44.953Z,30.60
2022-08-09T11:28:38.495Z,30.50
2022-08-09T11:31:49.189Z,30.50
2022-08-09T11:34:35.069Z,30.70
2022-08-09T11:37:08.928Z,30.70
2022-08-09T11:40:02.761Z,30.80
2022-08-09T11:42:48.460Z,31.10
2022-08-09T11:45:42.687Z,31.00
2022-08-09T11:48:24.869Z,31.30
2022-08-09T11:52:48.930Z,31.30
2022-08-09T11:54:13.135Z,31.40
2022-08-09T11:56:47.665Z,31.60
2022-08-09T11:59:30.564Z,31.40
2022-08-09T12:02:17.326Z,31.20
2022-08-09T12:05:06.116Z,31.20
2022-08-09T12:07:41.582Z,31.20
2022-08-09T12:10:38.360Z,31.10
2022-08-09T12:14:10.441Z,31.00
2022-08-09T12:16:04.214Z,31.00
2022-08-09T12:18:38.178Z,31.30
2022-08-09T12:21:28.668Z,31.80
2022-08-09T12:24:09.575Z,31.80
2022-08-09T12:29:13.809Z,32.00
2022-08-09T12:30:00.010Z,32.10
2022-08-09T12:32:36.634Z,32.00
2022-08-09T12:35:19.220Z,32.00
2022-08-09T12:37:53.847Z,32.10
2022-08-09T12:40:28.840Z,32.00
2022-08-09T12:43:02.214Z,31.60
2022-08-09T12:45:38.320Z,31.60
2022-08-09T12:48:27.860Z,31.80
2022-08-09T12:51:04.613Z,31.80
2022-08-09T12:53:40.743Z,31.50
2022-08-09T12:56:44.147Z,31.50
2022-08-09T12:59:20.045Z,31.40
2022-08-09T13:02:07.188Z,31.40
2022-08-09T13:04:41.832Z,31.60
2022-08-09T13:07:19.324Z,31.80
2022-08-09T13:10:02.576Z,31.90
2022-08-09T13:13:09.411Z,32.30
2022-08-09T13:16:00.647Z,32.50
2022-08-09T13:18:54.640Z,31.80
2022-08-09T13:22:38.181Z,31.70
2022-08-09T13:24:53.650Z,31.50
2022-08-09T13:27:40.071Z,31.40
2022-08-09T13:30:51.176Z,31.60
2022-08-09T13:33:23.015Z,31.60
2022-08-09T13:36:39.457Z,31.70
2022-08-09T13:38:56.754Z,31.60
2022-08-09T13:41:59.249Z,31.40
2022-08-09T13:44:22.960Z,31.40
2022-08-09T13:47:29.092Z,31.60
2022-08-09T13:49:58.235Z,31.60
2022-08-09T13:52:34.591Z,31.80
2022-08-09T13:55:07.735Z,31.90
2022-08-09T13:57:56.091Z,31.60
2022-08-09T14:00:30.495Z,31.60
2022-08-09T14:04:01.292Z,32.00
2022-08-09T14:05:56.420Z,32.40
2022-08-09T14:08:33.950Z,32.70
2022-08-09T14:11:09.855Z,32.60
2022-08-09T14:14:23.469Z,32.70
2022-08-09T14:16:41.004Z,32.80
2022-08-09T14:19:13.757Z,33.10
2022-08-09T14:21:48.956Z,33.20
2022-08-09T14:24:31.874Z,33.20
2022-08-09T14:27:20.049Z,33.10
2022-08-09T14:30:34.110Z,32.90
2022-08-09T14:32:44.728Z,32.40
2022-08-09T14:35:16.675Z,32.10
2022-08-09T14:38:02.563Z,32.10
2022-08-09T14:41:01.501Z,32.10
2022-08-09T14:43:47.835Z,31.90
2022-08-09T14:46:55.000Z,31.50
2022-08-09T14:49:12.251Z,31.50
2022-08-09T14:51:48.082Z,31.50
2022-08-09T14:54:22.098Z,31.60
2022-08-09T14:56:58.758Z,31.60
2022-08-09T14:59:31.343Z,31.60
2022-08-09T15:02:10.655Z,31.80
2022-08-09T15:04:46.121Z,32.00
2022-08-09T15:07:19.780Z,32.20
2022-08-09T15:10:07.194Z,32.40
2022-08-09T15:12:45.035Z,32.60
2022-08-09T15:15:17.326Z,32.50
2022-08-09T15:17:52.793Z,32.50
2022-08-09T15:21:55.524Z,32.60
2022-08-09T15:24:01.492Z,32.70
2022-08-09T15:26:19.055Z,32.80
2022-08-09T15:29:04.407Z,32.80
2022-08-09T15:31:41.965Z,32.80
2022-08-09T15:34:31.608Z,32.80
2022-08-09T15:37:37.751Z,32.80
2022-08-09T15:40:21.828Z,32.70
2022-08-09T15:42:57.269Z,32.70
2022-08-09T15:45:30.102Z,32.70
2022-08-09T15:48:07.746Z,32.50
2022-08-09T15:50:54.122Z,32.30
2022-08-09T15:54:02.641Z,32.10
2022-08-09T15:56:21.627Z,32.00
2022-08-09T15:59:02.444Z,32.00
2022-08-09T16:01:35.384Z,32.00
2022-08-09T16:04:13.533Z,32.00
2022-08-09T16:06:50.490Z,32.10
2022-08-09T16:09:32.552Z,32.20
2022-08-09T16:12:15.660Z,32.40
2022-08-09T16:14:47.700Z,32.50
2022-08-09T16:17:19.918Z,32.50
2022-08-09T16:20:04.740Z,32.50
2022-08-09T16:22:42.058Z,32.50
2022-08-09T16:25:15.759Z,32.40
2022-08-09T16:27:52.724Z,32.30
2022-08-09T16:30:26.020Z,32.20
2022-08-09T16:33:11.268Z,32.10
2022-08-09T16:35:56.064Z,32.10
2022-08-09T16:38:30.002Z,32.10
2022-08-09T16:41:04.311Z,31.90
2022-08-09T16:43:40.511Z,31.90
2022-08-09T16:46:13.896Z,31.90
2022-08-09T16:48:56.905Z,32.00
2022-08-09T16:51:36.689Z,32.00
2022-08-09T16:54:25.840Z,32.00
2022-08-09T16:57:00.553Z,32.00
2022-08-09T16:59:34.863Z,31.90
2022-08-09T17:02:07.330Z,31.70
2022-08-09T17:04:42.748Z,31.40
2022-08-09T17:08:44.245Z,31.10
2022-08-09T17:10:12.292Z,30.90
2022-08-09T17:12:45.449Z,30.80
2022-08-09T17:15:30.584Z,30.60
2022-08-09T17:18:11.584Z,30.50
2022-08-09T17:20:52.432Z,30.40
2022-08-09T17:24:20.064Z,30.30
2022-08-09T17:26:17.687Z,30.10
2022-08-09T17:29:20.041Z,30.10
2022-08-09T17:31:52.941Z,30.10
2022-08-09T17:35:03.972Z,30.00
2022-08-09T17:37:19.400Z,30.00
2022-08-09T17:39:53.723Z,30.10
2022-08-09T17:42:41.739Z,30.10
2022-08-09T17:45:15.914Z,30.10
2022-08-09T17:48:06.645Z,30.10
2022-08-09T17:50:41.766Z,30.20
2022-08-09T17:53:28.515Z,30.20
2022-08-09T17:56:07.729Z,30.10
2022-08-09T17:58:42.763Z,30.00
2022-08-09T18:01:22.491Z,29.80
2022-08-09T18:03:55.843Z,29.80
2022-08-09T18:06:32.839Z,29.80
2022-08-09T18:09:08.352Z,29.70
2022-08-09T18:12:05.626Z,29.70
2022-08-09T18:14:32.866Z,29.70
2022-08-09T18:17:04.897Z,29.60
2022-08-09T18:20:58.762Z,29.50
2022-08-09T18:22:34.108Z,29.30
2022-08-09T18:25:06.801Z,29.20
2022-08-09T18:28:03.240Z,29.10
2022-08-09T18:30:39.437Z,29.00
2022-08-09T18:33:23.016Z,28.90
2022-08-09T18:36:00.157Z,28.80
2022-08-09T18:38:32.517Z,28.80
2022-08-09T18:41:04.539Z,28.70
2022-08-09T18:43:36.518Z,28.60
2022-08-09T18:46:46.672Z,28.50
2022-08-09T18:49:09.528Z,28.40
2022-08-09T18:51:55.603Z,28.30
2022-08-09T18:54:30.448Z,28.30
2022-08-09T18:57:06.158Z,28.20
2022-08-09T18:59:51.192Z,28.10
2022-08-09T19:02:31.614Z,27.90
2022-08-09T19:05:20.225Z,27.90
2022-08-09T19:08:10.241Z,27.80
2022-08-09T19:10:46.185Z,27.70
2022-08-09T19:13:23.050Z,27.50
2022-08-09T19:16:10.417Z,27.40
2022-08-09T19:18:45.458Z,27.30
2022-08-09T19:21:21.570Z,27.20
2022-08-09T19:24:35.953Z,27.20
2022-08-09T19:26:51.598Z,27.20
2022-08-09T19:29:24.059Z,27.10
2022-08-09T19:31:59.857Z,27.10
2022-08-09T19:34:36.804Z,27.10
2022-08-09T19:37:16.854Z,27.10
2022-08-09T19:40:04.189Z,27.00
2022-08-09T19:42:37.970Z,26.90
2022-08-09T19:45:11.267Z,26.80
2022-08-09T19:47:44.427Z,26.70
2022-08-09T19:50:51.050Z,26.70
2022-08-09T19:53:08.347Z,26.70
2022-08-09T19:56:03.137Z,26.60
2022-08-09T19:58:35.698Z,26.50
2022-08-09T20:01:08.236Z,26.40
2022-08-09T20:04:17.840Z,26.40
2022-08-09T20:06:32.363Z,26.30
2022-08-09T20:09:04.804Z,26.30
2022-08-09T20:11:45.377Z,26.30
2022-08-09T20:14:23.843Z,26.30
2022-08-09T20:16:57.686Z,26.30
2022-08-09T20:19:48.668Z,26.30
2022-08-09T20:22:24.250Z,26.30
2022-08-09T20:25:04.845Z,26.20
2022-08-09T20:27:36.827Z,26.10
2022-08-09T20:30:14.104Z,26.00
2022-08-09T20:32:52.443Z,26.00
2022-08-09T20:35:24.655Z,25.90
2022-08-09T20:38:23.752Z,25.90
2022-08-09T20:40:49.168Z,25.90
2022-08-09T20:43:24.552Z,25.80
2022-08-09T20:46:15.534Z,25.80
2022-08-09T20:48:49.684Z,25.80
2022-08-09T20:51:25.976Z,25.90
2022-08-09T20:53:57.851Z,25.90
2022-08-09T20:56:29.724Z,25.70
2022-08-09T20:59:02.915Z,25.70
2022-08-09T21:01:50.077Z,25.70
2022-08-09T21:05:54.481Z,25.70
2022-08-09T21:07:16.543Z,25.60
2022-08-09T21:09:56.441Z,25.70
2022-08-09T21:15:34.572Z,25.50
2022-08-09T21:18:21.117Z,25.50
2022-08-09T21:20:58.165Z,25.50
2022-08-09T21:23:47.779Z,25.40
2022-08-09T21:26:22.397Z,25.40
2022-08-09T21:28:57.127Z,25.40
2022-08-09T21:31:48.771Z,25.30
2022-08-09T21:34:28.568Z,25.30
2022-08-09T21:37:00.919Z,25.30
2022-08-09T21:39:42.157Z,25.20
2022-08-09T21:42:14.484Z,25.20
2022-08-09T21:44:46.658Z,25.20
2022-08-09T21:47:20.184Z,25.20
2022-08-09T21:49:52.154Z,25.20
2022-08-09T21:52:24.145Z,25.10
2022-08-09T21:55:03.196Z,25.10
2022-08-09T21:57:59.469Z,25.10
2022-08-09T22:00:33.612Z,25.10
2022-08-09T22:03:12.571Z,25.10
2022-08-09T22:05:51.703Z,25.10
2022-08-09T22:08:27.344Z,25.10
2022-08-09T22:11:50.259Z,25.10
2022-08-09T22:13:51.444Z,25.10
2022-08-09T22:16:23.470Z,25.10
2022-08-09T22:18:55.635Z,25.10
2022-08-09T22:21:45.205Z,25.10
2022-08-09T22:24:24.135Z,25.10
2022-08-09T22:26:57.023Z,25.10
2022-08-09T22:29:38.481Z,25.10
2022-08-09T22:32:29.924Z,25.10
2022-08-09T22:35:06.591Z,25.20
2022-08-09T22:38:07.066Z,25.20
2022-08-09T22:40:39.626Z,25.20
2022-08-09T22:44:01.337Z,25.30
2022-08-09T22:48:14.398Z,25.30
2022-08-09T22:49:09.582Z,25.40
2022-08-09T22:51:49.298Z,25.30
2022-08-09T22:54:21.996Z,25.30
2022-08-09T22:56:59.175Z,25.30
2022-08-09T22:59:57.733Z,25.30
2022-08-09T23:02:23.051Z,25.40
2022-08-09T23:04:57.115Z,25.50
2022-08-09T23:08:27.700Z,25.70
2022-08-09T23:10:43.733Z,25.90
2022-08-09T23:13:15.893Z,26.10
2022-08-09T23:16:02.652Z,26.30
2022-08-09T23:18:35.570Z,26.40
2022-08-09T23:21:08.877Z,26.60
2022-08-09T23:23:41.456Z,26.70
2022-08-09T23:26:13.343Z,26.70
2022-08-09T23:28:45.240Z,26.80
2022-08-09T23:31:17.265Z,26.80
2022-08-09T23:33:49.204Z,26.90
2022-08-09T23:36:21.121Z,26.90
2022-08-09T23:38:52.976Z,26.90
2022-08-09T23:41:27.565Z,26.90
2022-08-09T23:44:02.169Z,26.80
2022-08-09T23:46:34.581Z,26.60
2022-08-09T23:49:06.603Z,26.50
2022-08-09T23:51:38.523Z,26.40
2022-08-09T23:54:10.492Z,26.30
2022-08-09T23:56:52.991Z,26.10
2022-08-09T23:59:46.835Z,26.00
